Terminal Aerodrome Forecast
Issued by NWS

Home | Current Version | Previous Version | Text Only | Print | Product List | Glossary On
Versions: 1 2 3 4 5 6 7 8 9 10 11 12
000
FTUS45 KGJT 212340
TAFCNY
TAF
KCNY 212340Z 2200/2224 30009KT P6SM FEW120 SCT130
     FM220400 28006KT P6SM FEW130 SCT200
     FM220800 09005KT P6SM FEW120 SCT200
     FM221200 10006KT P6SM BKN200
     FM221800 17004KT P6SM SCT110
     FM222100 32006KT P6SM BKN120=

USA.gov is the U.S. government's official web portal to all federal, state and local government web resources and services.